OYBBC ENTO-ENGM
Flight info
| Callsign | OYBBC |
|---|---|
| Flight time | 0h 49m |
| Altitude | 5000 |
| Route | BAKIV DCT RIPAM |
| Aircraft | PA24/L-SDGRY/S |
Departure
| Time | 2026-05-04 19:16 |
|---|---|
| Airport | Sandefjord Airport, Torp (ENTO) |
Arrival
| Time | 2026-05-04 20:06 |
|---|---|
| Airport | Oslo-Gardermoen International Airport (ENGM) |
| Time | Latitude | Longitude | Altitude | Speed | Heading |
|---|---|---|---|---|---|
| 2026-05-04 19:05 | 59.18571 | 10.25614 | 273 ft | 0 kts | 269° |
| 2026-05-04 19:13 | 59.18570 | 10.25591 | 273 ft | 10 kts | 259° |
| 2026-05-04 19:13 | 59.18513 | 10.25571 | 273 ft | 13 kts | 178° |
| 2026-05-04 19:13 | 59.18452 | 10.25666 | 273 ft | 18 kts | 42° |
| 2026-05-04 19:14 | 59.18495 | 10.25745 | 273 ft | 22 kts | 46° |
| 2026-05-04 19:14 | 59.18574 | 10.25864 | 273 ft | 0 kts | 358° |
| 2026-05-04 19:15 | 59.18575 | 10.25864 | 273 ft | 3 kts | 358° |
| 2026-05-04 19:15 | 59.18880 | 10.25849 | 274 ft | 78 kts | 359° |
| 2026-05-04 19:16 | 59.19479 | 10.26056 | 460 ft | 89 kts | 15° |
| 2026-05-04 19:16 | 59.20056 | 10.26672 | 698 ft | 98 kts | 22° |
| 2026-05-04 19:16 | 59.20634 | 10.27549 | 863 ft | 114 kts | 39° |
| 2026-05-04 19:16 | 59.21186 | 10.28709 | 1079 ft | 116 kts | 41° |
| 2026-05-04 19:17 | 59.21747 | 10.29840 | 1248 ft | 117 kts | 39° |
| 2026-05-04 19:17 | 59.22339 | 10.30944 | 1402 ft | 122 kts | 33° |
| 2026-05-04 19:17 | 59.22999 | 10.32064 | 1563 ft | 128 kts | 34° |
| 2026-05-04 19:17 | 59.23651 | 10.33375 | 1635 ft | 140 kts | 38° |
| 2026-05-04 19:18 | 59.24080 | 10.34273 | 1786 ft | 133 kts | 37° |
| 2026-05-04 19:18 | 59.24773 | 10.35503 | 1834 ft | 139 kts | 29° |
| 2026-05-04 19:18 | 59.25550 | 10.36699 | 1805 ft | 144 kts | 27° |
| 2026-05-04 19:18 | 59.26359 | 10.37853 | 1845 ft | 144 kts | 27° |
| 2026-05-04 19:19 | 59.27184 | 10.39037 | 1715 ft | 151 kts | 27° |
| 2026-05-04 19:19 | 59.28029 | 10.40203 | 1702 ft | 147 kts | 26° |
| 2026-05-04 19:19 | 59.28862 | 10.41358 | 1651 ft | 146 kts | 27° |
| 2026-05-04 19:19 | 59.29687 | 10.42516 | 1597 ft | 145 kts | 25° |
| 2026-05-04 19:20 | 59.30496 | 10.43677 | 1426 ft | 145 kts | 26° |
| 2026-05-04 19:20 | 59.31325 | 10.44852 | 1380 ft | 148 kts | 26° |
| 2026-05-04 19:20 | 59.32155 | 10.46005 | 1373 ft | 145 kts | 26° |
| 2026-05-04 19:20 | 59.32976 | 10.47147 | 1374 ft | 145 kts | 27° |
| 2026-05-04 19:21 | 59.33790 | 10.48303 | 1397 ft | 147 kts | 26° |
| 2026-05-04 19:21 | 59.34606 | 10.49462 | 1431 ft | 144 kts | 26° |
| 2026-05-04 19:21 | 59.35422 | 10.50616 | 1433 ft | 145 kts | 26° |
| 2026-05-04 19:21 | 59.36242 | 10.51764 | 1441 ft | 144 kts | 26° |
| 2026-05-04 19:22 | 59.37056 | 10.52889 | 1466 ft | 142 kts | 26° |
| 2026-05-04 19:22 | 59.37871 | 10.54000 | 1507 ft | 144 kts | 26° |
| 2026-05-04 19:22 | 59.38690 | 10.55161 | 1545 ft | 145 kts | 26° |
| 2026-05-04 19:22 | 59.39501 | 10.56318 | 1590 ft | 143 kts | 26° |
| 2026-05-04 19:23 | 59.40310 | 10.57462 | 1622 ft | 144 kts | 26° |
| 2026-05-04 19:23 | 59.41125 | 10.58638 | 1610 ft | 145 kts | 27° |
| 2026-05-04 19:23 | 59.41933 | 10.59797 | 1616 ft | 142 kts | 27° |
| 2026-05-04 19:23 | 59.42740 | 10.60932 | 1605 ft | 144 kts | 27° |
| 2026-05-04 19:24 | 59.43555 | 10.62078 | 1619 ft | 146 kts | 26° |
| 2026-05-04 19:24 | 59.44372 | 10.63244 | 1648 ft | 145 kts | 27° |
| 2026-05-04 19:24 | 59.45187 | 10.64397 | 1678 ft | 144 kts | 25° |
| 2026-05-04 19:24 | 59.45994 | 10.65583 | 1702 ft | 146 kts | 25° |
| 2026-05-04 19:25 | 59.46793 | 10.66773 | 1701 ft | 143 kts | 26° |
| 2026-05-04 19:25 | 59.47580 | 10.67967 | 1712 ft | 143 kts | 26° |
| 2026-05-04 19:25 | 59.48376 | 10.69119 | 1735 ft | 141 kts | 26° |
| 2026-05-04 19:25 | 59.49171 | 10.70257 | 1743 ft | 142 kts | 27° |
| 2026-05-04 19:26 | 59.49987 | 10.71370 | 1752 ft | 143 kts | 23° |
| 2026-05-04 19:26 | 59.50819 | 10.72423 | 1775 ft | 141 kts | 23° |
| 2026-05-04 19:26 | 59.51638 | 10.73474 | 1800 ft | 140 kts | 22° |
| 2026-05-04 19:26 | 59.52455 | 10.74548 | 1809 ft | 140 kts | 26° |
| 2026-05-04 19:27 | 59.53268 | 10.75643 | 1823 ft | 142 kts | 22° |
| 2026-05-04 19:27 | 59.54100 | 10.76691 | 1832 ft | 142 kts | 23° |
| 2026-05-04 19:27 | 59.54930 | 10.77707 | 1841 ft | 140 kts | 22° |
| 2026-05-04 19:27 | 59.55741 | 10.78684 | 1834 ft | 138 kts | 22° |
| 2026-05-04 19:28 | 59.56547 | 10.79731 | 1834 ft | 140 kts | 22° |
| 2026-05-04 19:28 | 59.57368 | 10.80782 | 1832 ft | 141 kts | 23° |
| 2026-05-04 19:28 | 59.58186 | 10.81827 | 1840 ft | 140 kts | 22° |
| 2026-05-04 19:28 | 59.58996 | 10.82886 | 1832 ft | 140 kts | 23° |
| 2026-05-04 19:29 | 59.59802 | 10.83952 | 1833 ft | 139 kts | 20° |
| 2026-05-04 19:29 | 59.60609 | 10.84988 | 1852 ft | 139 kts | 21° |
| 2026-05-04 19:29 | 59.61448 | 10.85944 | 1845 ft | 139 kts | 19° |
| 2026-05-04 19:29 | 59.62288 | 10.86901 | 1855 ft | 140 kts | 19° |
| 2026-05-04 19:30 | 59.63177 | 10.87905 | 1824 ft | 154 kts | 20° |
| 2026-05-04 19:30 | 59.64129 | 10.88956 | 1998 ft | 157 kts | 18° |
| 2026-05-04 19:30 | 59.65082 | 10.89954 | 2195 ft | 155 kts | 18° |
| 2026-05-04 19:30 | 59.66043 | 10.90994 | 2297 ft | 159 kts | 18° |
| 2026-05-04 19:31 | 59.67015 | 10.92036 | 2425 ft | 161 kts | 18° |
| 2026-05-04 19:31 | 59.68009 | 10.93095 | 2507 ft | 163 kts | 19° |
| 2026-05-04 19:31 | 59.69034 | 10.93986 | 2683 ft | 159 kts | 9° |
| 2026-05-04 19:31 | 59.70068 | 10.94731 | 2806 ft | 158 kts | 8° |
| 2026-05-04 19:32 | 59.71098 | 10.95455 | 2874 ft | 159 kts | 6° |
| 2026-05-04 19:32 | 59.72174 | 10.96197 | 2749 ft | 171 kts | 7° |
| 2026-05-04 19:32 | 59.73310 | 10.96932 | 2684 ft | 170 kts | 11° |
| 2026-05-04 19:32 | 59.74427 | 10.97557 | 2756 ft | 164 kts | 2° |
| 2026-05-04 19:33 | 59.75541 | 10.98063 | 2747 ft | 165 kts | 3° |
| 2026-05-04 19:33 | 59.76657 | 10.98544 | 2750 ft | 163 kts | 3° |
| 2026-05-04 19:33 | 59.77765 | 10.99084 | 2761 ft | 164 kts | 3° |
| 2026-05-04 19:33 | 59.78874 | 10.99662 | 2798 ft | 166 kts | 4° |
| 2026-05-04 19:34 | 59.79989 | 11.00265 | 2813 ft | 166 kts | 4° |
| 2026-05-04 19:34 | 59.81100 | 11.00863 | 2783 ft | 166 kts | 2° |
| 2026-05-04 19:34 | 59.82216 | 11.01420 | 2730 ft | 166 kts | 5° |
| 2026-05-04 19:34 | 59.83323 | 11.02037 | 2622 ft | 166 kts | 9° |
| 2026-05-04 19:35 | 59.84453 | 11.02527 | 2520 ft | 165 kts | 2° |
| 2026-05-04 19:35 | 59.85562 | 11.03054 | 2584 ft | 163 kts | 3° |
| 2026-05-04 19:35 | 59.86664 | 11.03593 | 2585 ft | 165 kts | 4° |
| 2026-05-04 19:35 | 59.87779 | 11.04159 | 2605 ft | 164 kts | 2° |
| 2026-05-04 19:36 | 59.88875 | 11.04695 | 2621 ft | 165 kts | 4° |
| 2026-05-04 19:36 | 59.89996 | 11.05226 | 2606 ft | 166 kts | 2° |
| 2026-05-04 19:36 | 59.91113 | 11.05710 | 2675 ft | 164 kts | 4° |
| 2026-05-04 19:36 | 59.92227 | 11.06149 | 2729 ft | 162 kts | 354° |
| 2026-05-04 19:37 | 59.93344 | 11.06222 | 2735 ft | 160 kts | 350° |
| 2026-05-04 19:37 | 59.94446 | 11.06254 | 2742 ft | 159 kts | 349° |
| 2026-05-04 19:37 | 59.95576 | 11.06258 | 2628 ft | 164 kts | 349° |
| 2026-05-04 19:37 | 59.96728 | 11.06272 | 2553 ft | 168 kts | 350° |
| 2026-05-04 19:38 | 59.97921 | 11.06277 | 2414 ft | 171 kts | 350° |
| 2026-05-04 19:38 | 59.99090 | 11.06328 | 2365 ft | 168 kts | 352° |
| 2026-05-04 19:38 | 60.00250 | 11.06384 | 2305 ft | 162 kts | 350° |
| 2026-05-04 19:38 | 60.01365 | 11.06395 | 2241 ft | 159 kts | 351° |
| 2026-05-04 19:39 | 60.02453 | 11.06408 | 2179 ft | 159 kts | 352° |
| 2026-05-04 19:39 | 60.03580 | 11.06420 | 2069 ft | 162 kts | 354° |
| 2026-05-04 19:39 | 60.04675 | 11.06483 | 2178 ft | 153 kts | 353° |
| 2026-05-04 19:39 | 60.05719 | 11.06435 | 2218 ft | 148 kts | 351° |
| 2026-05-04 19:40 | 60.06770 | 11.06407 | 2222 ft | 152 kts | 350° |
| 2026-05-04 19:40 | 60.07832 | 11.06337 | 2248 ft | 153 kts | 347° |
| 2026-05-04 19:40 | 60.08887 | 11.06171 | 2293 ft | 151 kts | 347° |
| 2026-05-04 19:40 | 60.09924 | 11.06016 | 2329 ft | 149 kts | 346° |
| 2026-05-04 19:41 | 60.10967 | 11.05867 | 2362 ft | 151 kts | 347° |
| 2026-05-04 19:41 | 60.12020 | 11.05727 | 2403 ft | 152 kts | 347° |
| 2026-05-04 19:41 | 60.13074 | 11.05577 | 2430 ft | 151 kts | 346° |
| 2026-05-04 19:41 | 60.14122 | 11.05434 | 2448 ft | 151 kts | 347° |
| 2026-05-04 19:42 | 60.15173 | 11.05282 | 2430 ft | 152 kts | 347° |
| 2026-05-04 19:42 | 60.16230 | 11.05125 | 2457 ft | 152 kts | 346° |
| 2026-05-04 19:42 | 60.17302 | 11.04797 | 2242 ft | 159 kts | 339° |
| 2026-05-04 19:42 | 60.18376 | 11.04293 | 2175 ft | 156 kts | 339° |
| 2026-05-04 19:43 | 60.19422 | 11.03722 | 2096 ft | 153 kts | 336° |
| 2026-05-04 19:43 | 60.20439 | 11.03177 | 1836 ft | 152 kts | 336° |
| 2026-05-04 19:43 | 60.21434 | 11.02653 | 1737 ft | 144 kts | 336° |
| 2026-05-04 19:43 | 60.22368 | 11.02080 | 1672 ft | 137 kts | 330° |
| 2026-05-04 19:44 | 60.23162 | 11.01222 | 1731 ft | 123 kts | 327° |
| 2026-05-04 19:44 | 60.23985 | 11.01368 | 1664 ft | 135 kts | 25° |
| 2026-05-04 19:44 | 60.24563 | 11.02911 | 1683 ft | 139 kts | 61° |
| 2026-05-04 19:44 | 60.24668 | 11.04801 | 1672 ft | 134 kts | 96° |
| 2026-05-04 19:45 | 60.24383 | 11.06525 | 1598 ft | 126 kts | 125° |
| 2026-05-04 19:45 | 60.23835 | 11.07809 | 1502 ft | 115 kts | 137° |
| 2026-05-04 19:45 | 60.23329 | 11.08795 | 1419 ft | 91 kts | 153° |
| 2026-05-04 19:45 | 60.22785 | 11.09377 | 1243 ft | 87 kts | 173° |
| 2026-05-04 19:46 | 60.22171 | 11.09448 | 989 ft | 90 kts | 193° |
| 2026-05-04 19:46 | 60.21556 | 11.09169 | 757 ft | 89 kts | 200° |
| 2026-05-04 19:46 | 60.21007 | 11.08837 | 683 ft | 75 kts | 201° |
| 2026-05-04 19:46 | 60.20533 | 11.08578 | 674 ft | 72 kts | 197° |
| 2026-05-04 19:47 | 60.19957 | 11.08246 | 739 ft | 94 kts | 201° |
| 2026-05-04 19:47 | 60.19301 | 11.07851 | 813 ft | 103 kts | 201° |
| 2026-05-04 19:47 | 60.18608 | 11.07441 | 887 ft | 106 kts | 202° |
| 2026-05-04 19:47 | 60.18048 | 11.06682 | 1098 ft | 93 kts | 254° |
| 2026-05-04 19:48 | 60.18070 | 11.05394 | 1125 ft | 93 kts | 278° |
| 2026-05-04 19:48 | 60.18520 | 11.04591 | 1141 ft | 105 kts | 352° |
| 2026-05-04 19:48 | 60.19326 | 11.05030 | 1153 ft | 132 kts | 14° |
| 2026-05-04 19:48 | 60.20225 | 11.05666 | 1270 ft | 138 kts | 15° |
| 2026-05-04 19:49 | 60.21130 | 11.06290 | 1426 ft | 136 kts | 10° |
| 2026-05-04 19:49 | 60.22021 | 11.06882 | 1594 ft | 134 kts | 11° |
| 2026-05-04 19:49 | 60.22919 | 11.07545 | 1670 ft | 139 kts | 14° |
| 2026-05-04 19:49 | 60.23787 | 11.07394 | 1925 ft | 126 kts | 315° |
| 2026-05-04 19:50 | 60.23985 | 11.05856 | 1864 ft | 121 kts | 246° |
| 2026-05-04 19:50 | 60.23204 | 11.05258 | 1635 ft | 142 kts | 168° |
| 2026-05-04 19:50 | 60.22571 | 11.06716 | 1499 ft | 141 kts | 110° |
| 2026-05-04 19:50 | 60.22292 | 11.08462 | 1212 ft | 113 kts | 121° |
| 2026-05-04 19:51 | 60.21727 | 11.09177 | 855 ft | 93 kts | 185° |
| 2026-05-04 19:51 | 60.21164 | 11.08919 | 693 ft | 71 kts | 202° |
| 2026-05-04 19:51 | 60.20737 | 11.08655 | 674 ft | 59 kts | 202° |
| 2026-05-04 19:51 | 60.20307 | 11.08427 | 696 ft | 73 kts | 202° |
| 2026-05-04 19:52 | 60.19741 | 11.08100 | 775 ft | 95 kts | 200° |
| 2026-05-04 19:52 | 60.19065 | 11.07707 | 910 ft | 107 kts | 200° |
| 2026-05-04 19:52 | 60.18340 | 11.07271 | 1051 ft | 110 kts | 200° |
| 2026-05-04 19:52 | 60.17680 | 11.06639 | 1321 ft | 101 kts | 238° |
| 2026-05-04 19:53 | 60.17676 | 11.05209 | 1328 ft | 116 kts | 286° |
| 2026-05-04 19:53 | 60.17976 | 11.03608 | 1335 ft | 125 kts | 303° |
| 2026-05-04 19:53 | 60.18750 | 11.03006 | 1365 ft | 132 kts | 1° |
| 2026-05-04 19:53 | 60.19675 | 11.03639 | 1356 ft | 144 kts | 15° |
| 2026-05-04 19:54 | 60.20553 | 11.03283 | 1551 ft | 133 kts | 309° |
| 2026-05-04 19:54 | 60.20639 | 11.01581 | 1551 ft | 132 kts | 239° |
| 2026-05-04 19:54 | 60.19791 | 11.00945 | 1468 ft | 146 kts | 172° |
| 2026-05-04 19:54 | 60.19118 | 11.02440 | 1358 ft | 159 kts | 101° |
| 2026-05-04 19:55 | 60.19490 | 11.04437 | 1375 ft | 157 kts | 37° |
| 2026-05-04 19:55 | 60.20474 | 11.05309 | 1355 ft | 151 kts | 13° |
| 2026-05-04 19:55 | 60.21425 | 11.06046 | 1455 ft | 144 kts | 17° |
| 2026-05-04 19:55 | 60.22335 | 11.06893 | 1509 ft | 145 kts | 19° |
| 2026-05-04 19:56 | 60.23221 | 11.07784 | 1525 ft | 139 kts | 21° |
| 2026-05-04 19:56 | 60.24054 | 11.08654 | 1541 ft | 131 kts | 20° |
| 2026-05-04 19:56 | 60.24828 | 11.09387 | 1572 ft | 113 kts | 18° |
| 2026-05-04 19:56 | 60.25485 | 11.10058 | 1594 ft | 101 kts | 17° |
| 2026-05-04 19:57 | 60.25793 | 11.11166 | 1523 ft | 101 kts | 92° |
| 2026-05-04 19:57 | 60.25360 | 11.12158 | 1386 ft | 96 kts | 181° |
| 2026-05-04 19:57 | 60.24750 | 11.11798 | 1336 ft | 90 kts | 209° |
| 2026-05-04 19:57 | 60.24178 | 11.11282 | 1316 ft | 91 kts | 211° |
| 2026-05-04 19:58 | 60.23591 | 11.10766 | 1282 ft | 94 kts | 210° |
| 2026-05-04 19:58 | 60.22987 | 11.10267 | 1208 ft | 95 kts | 212° |
| 2026-05-04 19:58 | 60.22358 | 11.09709 | 1004 ft | 100 kts | 206° |
| 2026-05-04 19:58 | 60.21761 | 11.09271 | 772 ft | 83 kts | 201° |
| 2026-05-04 19:59 | 60.21261 | 11.08972 | 693 ft | 69 kts | 201° |
| 2026-05-04 19:59 | 60.20831 | 11.08723 | 675 ft | 59 kts | 206° |
| 2026-05-04 19:59 | 60.20368 | 11.08466 | 698 ft | 86 kts | 200° |
| 2026-05-04 19:59 | 60.19886 | 11.07654 | 856 ft | 106 kts | 258° |
| 2026-05-04 20:00 | 60.19966 | 11.06102 | 981 ft | 116 kts | 283° |
| 2026-05-04 20:00 | 60.20170 | 11.04447 | 1082 ft | 125 kts | 285° |
| 2026-05-04 20:00 | 60.20466 | 11.02727 | 1173 ft | 130 kts | 292° |
| 2026-05-04 20:00 | 60.21004 | 11.01389 | 1413 ft | 126 kts | 327° |
| 2026-05-04 20:01 | 60.21887 | 11.01132 | 1496 ft | 137 kts | 359° |
| 2026-05-04 20:01 | 60.22854 | 11.01529 | 1633 ft | 143 kts | 6° |
| 2026-05-04 20:01 | 60.23817 | 11.02029 | 1799 ft | 144 kts | 7° |
| 2026-05-04 20:01 | 60.24771 | 11.02605 | 2010 ft | 140 kts | 7° |
| 2026-05-04 20:02 | 60.25707 | 11.03177 | 2163 ft | 142 kts | 9° |
| 2026-05-04 20:02 | 60.26644 | 11.03911 | 2244 ft | 147 kts | 21° |
| 2026-05-04 20:02 | 60.27208 | 11.05600 | 2277 ft | 157 kts | 73° |
| 2026-05-04 20:02 | 60.27130 | 11.07919 | 2164 ft | 174 kts | 97° |
| 2026-05-04 20:03 | 60.26826 | 11.10211 | 2267 ft | 169 kts | 119° |
| 2026-05-04 20:03 | 60.26064 | 11.11809 | 2348 ft | 155 kts | 148° |
| 2026-05-04 20:03 | 60.25227 | 11.12967 | 2367 ft | 131 kts | 159° |
| 2026-05-04 20:03 | 60.24491 | 11.13579 | 2391 ft | 98 kts | 195° |
| 2026-05-04 20:04 | 60.23953 | 11.12970 | 2223 ft | 88 kts | 236° |
| 2026-05-04 20:04 | 60.23526 | 11.12087 | 2054 ft | 89 kts | 236° |
| 2026-05-04 20:04 | 60.23090 | 11.11236 | 1811 ft | 84 kts | 234° |
| 2026-05-04 20:04 | 60.22816 | 11.10746 | 1621 ft | 76 kts | 232° |
| 2026-05-04 20:05 | 60.22412 | 11.10039 | 1393 ft | 74 kts | 229° |
| 2026-05-04 20:05 | 60.21926 | 11.09444 | 1008 ft | 94 kts | 212° |
| 2026-05-04 20:05 | 60.21289 | 11.08992 | 712 ft | 96 kts | 199° |
| 2026-05-04 20:05 | 60.20717 | 11.08651 | 674 ft | 77 kts | 199° |
| 2026-05-04 20:06 | 60.20260 | 11.08424 | 671 ft | 60 kts | 198° |
| 2026-05-04 20:06 | 60.19886 | 11.08174 | 669 ft | 54 kts | 194° |
| 2026-05-04 20:06 | 60.19538 | 11.08042 | 668 ft | 48 kts | 214° |
| 2026-05-04 20:06 | 60.19232 | 11.07806 | 666 ft | 47 kts | 197° |
| 2026-05-04 20:07 | 60.18923 | 11.07620 | 663 ft | 44 kts | 197° |
| 2026-05-04 20:07 | 60.18685 | 11.07483 | 661 ft | 28 kts | 196° |
| 2026-05-04 20:07 | 60.18571 | 11.07594 | 660 ft | 15 kts | 97° |
| 2026-05-04 20:07 | 60.18557 | 11.07735 | 660 ft | 4 kts | 103° |
| 2026-05-04 20:08 | 60.18555 | 11.07756 | 660 ft | 0 kts | 103° |